sensor_id;sensor_type;location;lat;lon;timestamp;pressure;altitude;pressure_sealevel;temperature;humidity
45129;BME280;35512;56.312;101.728;2023-05-22T00:00:00;95921.94;;;13.05;29.45
45129;BME280;35512;56.312;101.728;2023-05-22T00:02:37;95918.03;;;13.13;29.13
45129;BME280;35512;56.312;101.728;2023-05-22T00:05:14;95919.59;;;13.17;29.40
45129;BME280;35512;56.312;101.728;2023-05-22T00:07:43;95921.91;;;13.23;29.25
45129;BME280;35512;56.312;101.728;2023-05-22T00:10:13;95914.94;;;13.25;29.16
45129;BME280;35512;56.312;101.728;2023-05-22T00:12:42;95921.13;;;13.29;29.44
45129;BME280;35512;56.312;101.728;2023-05-22T00:15:11;95917.25;;;13.38;29.17
45129;BME280;35512;56.312;101.728;2023-05-22T00:17:40;95923.00;;;13.50;29.23
45129;BME280;35512;56.312;101.728;2023-05-22T00:20:10;95917.53;;;13.58;29.37
45129;BME280;35512;56.312;101.728;2023-05-22T00:22:39;95922.97;;;13.65;29.28
45129;BME280;35512;56.312;101.728;2023-05-22T00:25:08;95921.41;;;13.60;29.35
45129;BME280;35512;56.312;101.728;2023-05-22T00:27:38;95927.25;;;13.59;29.07
45129;BME280;35512;56.312;101.728;2023-05-22T00:30:07;95918.34;;;13.55;29.29
45129;BME280;35512;56.312;101.728;2023-05-22T00:32:37;95921.81;;;13.59;28.99
45129;BME280;35512;56.312;101.728;2023-05-22T00:35:07;95925.63;;;13.68;28.95
45129;BME280;35512;56.312;101.728;2023-05-22T00:37:36;95924.44;;;13.84;29.02
45129;BME280;35512;56.312;101.728;2023-05-22T00:40:06;95919.66;;;14.02;28.76
45129;BME280;35512;56.312;101.728;2023-05-22T00:42:35;95923.38;;;14.30;28.50
45129;BME280;35512;56.312;101.728;2023-05-22T00:45:05;95922.00;;;14.60;28.48
45129;BME280;35512;56.312;101.728;2023-05-22T00:47:34;95907.34;;;14.92;28.36
45129;BME280;35512;56.312;101.728;2023-05-22T00:50:04;95909.34;;;15.26;28.51
45129;BME280;35512;56.312;101.728;2023-05-22T00:52:37;95903.59;;;15.51;28.27
45129;BME280;35512;56.312;101.728;2023-05-22T00:55:06;95913.50;;;15.69;28.01
45129;BME280;35512;56.312;101.728;2023-05-22T00:57:37;95904.78;;;15.85;27.92
45129;BME280;35512;56.312;101.728;2023-05-22T01:00:12;95901.50;;;15.97;28.26
45129;BME280;35512;56.312;101.728;2023-05-22T01:02:43;95903.22;;;16.15;27.82
45129;BME280;35512;56.312;101.728;2023-05-22T01:05:12;95901.31;;;16.39;27.95
45129;BME280;35512;56.312;101.728;2023-05-22T01:07:45;95909.25;;;16.77;27.66
45129;BME280;35512;56.312;101.728;2023-05-22T01:10:14;95902.47;;;17.09;27.56
45129;BME280;35512;56.312;101.728;2023-05-22T01:13:16;95893.84;;;17.34;27.47
45129;BME280;35512;56.312;101.728;2023-05-22T01:16:25;95894.81;;;17.64;27.17
45129;BME280;35512;56.312;101.728;2023-05-22T01:22:02;95890.44;;;18.23;26.86
45129;BME280;35512;56.312;101.728;2023-05-22T01:31:03;95890.25;;;18.64;26.70
45129;BME280;35512;56.312;101.728;2023-05-22T01:33:07;95886.16;;;18.88;26.51
45129;BME280;35512;56.312;101.728;2023-05-22T01:35:39;95874.06;;;19.32;25.99
45129;BME280;35512;56.312;101.728;2023-05-22T01:38:11;95884.06;;;20.32;25.45
45129;BME280;35512;56.312;101.728;2023-05-22T01:40:41;95874.44;;;21.23;24.98
45129;BME280;35512;56.312;101.728;2023-05-22T01:43:13;95878.19;;;22.15;24.78
45129;BME280;35512;56.312;101.728;2023-05-22T01:45:42;95885.78;;;23.20;24.40
45129;BME280;35512;56.312;101.728;2023-05-22T01:48:11;95885.53;;;23.98;24.01
45129;BME280;35512;56.312;101.728;2023-05-22T01:50:40;95881.84;;;24.92;23.76
45129;BME280;35512;56.312;101.728;2023-05-22T01:58:56;95873.78;;;28.08;22.59
45129;BME280;35512;56.312;101.728;2023-05-22T02:01:27;95878.03;;;28.79;21.91
45129;BME280;35512;56.312;101.728;2023-05-22T02:04:00;95869.72;;;29.50;21.26
45129;BME280;35512;56.312;101.728;2023-05-22T02:06:31;95866.47;;;30.14;20.98
45129;BME280;35512;56.312;101.728;2023-05-22T02:09:01;95871.41;;;30.95;20.67
45129;BME280;35512;56.312;101.728;2023-05-22T02:11:32;95870.13;;;31.49;20.16
45129;BME280;35512;56.312;101.728;2023-05-22T02:14:02;95876.53;;;31.80;19.78
45129;BME280;35512;56.312;101.728;2023-05-22T02:16:32;95866.34;;;32.19;19.46
45129;BME280;35512;56.312;101.728;2023-05-22T02:19:01;95854.84;;;32.53;18.66
45129;BME280;35512;56.312;101.728;2023-05-22T02:21:56;95868.13;;;33.15;18.80
45129;BME280;35512;56.312;101.728;2023-05-22T02:24:25;95857.50;;;33.52;18.22
45129;BME280;35512;56.312;101.728;2023-05-22T02:26:53;95856.06;;;33.97;17.73
45129;BME280;35512;56.312;101.728;2023-05-22T02:29:23;95860.19;;;34.42;17.47
45129;BME280;35512;56.312;101.728;2023-05-22T02:31:55;95843.69;;;34.78;16.94
45129;BME280;35512;56.312;101.728;2023-05-22T02:34:26;95850.69;;;35.12;16.94
45129;BME280;35512;56.312;101.728;2023-05-22T02:36:55;95849.00;;;35.43;16.50
45129;BME280;35512;56.312;101.728;2023-05-22T02:39:25;95850.38;;;35.50;16.35
45129;BME280;35512;56.312;101.728;2023-05-22T02:41:54;95856.03;;;35.71;15.88
45129;BME280;35512;56.312;101.728;2023-05-22T02:44:23;95851.50;;;36.02;15.59
45129;BME280;35512;56.312;101.728;2023-05-22T02:46:53;95835.97;;;36.30;15.27
45129;BME280;35512;56.312;101.728;2023-05-22T02:49:23;95837.94;;;36.72;14.72
45129;BME280;35512;56.312;101.728;2023-05-22T02:51:52;95835.72;;;36.78;14.91
45129;BME280;35512;56.312;101.728;2023-05-22T02:54:21;95836.22;;;36.98;14.33
45129;BME280;35512;56.312;101.728;2023-05-22T02:56:50;95838.97;;;37.27;14.22
45129;BME280;35512;56.312;101.728;2023-05-22T02:59:19;95830.78;;;37.44;14.20
45129;BME280;35512;56.312;101.728;2023-05-22T03:01:49;95835.94;;;38.00;13.69
45129;BME280;35512;56.312;101.728;2023-05-22T03:04:18;95829.75;;;38.48;13.34
45129;BME280;35512;56.312;101.728;2023-05-22T03:06:47;95823.47;;;38.80;13.01
45129;BME280;35512;56.312;101.728;2023-05-22T03:09:16;95824.97;;;38.81;12.53
45129;BME280;35512;56.312;101.728;2023-05-22T03:11:47;95825.53;;;38.87;12.30
45129;BME280;35512;56.312;101.728;2023-05-22T03:14:16;95823.38;;;39.03;12.46
45129;BME280;35512;56.312;101.728;2023-05-22T03:16:46;95830.31;;;39.10;12.37
45129;BME280;35512;56.312;101.728;2023-05-22T03:19:15;95823.50;;;39.29;12.31
45129;BME280;35512;56.312;101.728;2023-05-22T03:21:44;95830.16;;;39.08;11.67
45129;BME280;35512;56.312;101.728;2023-05-22T03:24:13;95823.50;;;38.57;12.00
45129;BME280;35512;56.312;101.728;2023-05-22T03:26:42;95820.19;;;38.99;12.11
45129;BME280;35512;56.312;101.728;2023-05-22T03:29:18;95824.28;;;39.21;11.52
45129;BME280;35512;56.312;101.728;2023-05-22T03:31:47;95819.19;;;39.61;11.60
45129;BME280;35512;56.312;101.728;2023-05-22T03:34:16;95820.88;;;39.64;11.34
45129;BME280;35512;56.312;101.728;2023-05-22T03:36:47;95821.84;;;38.00;11.76
45129;BME280;35512;56.312;101.728;2023-05-22T03:39:17;95819.19;;;35.75;12.59
45129;BME280;35512;56.312;101.728;2023-05-22T03:41:58;95813.66;;;35.13;12.66
45129;BME280;35512;56.312;101.728;2023-05-22T03:44:27;95818.78;;;36.34;12.13
45129;BME280;35512;56.312;101.728;2023-05-22T03:46:56;95815.59;;;36.95;11.56
45129;BME280;35512;56.312;101.728;2023-05-22T03:49:25;95809.66;;;37.14;11.64
45129;BME280;35512;56.312;101.728;2023-05-22T03:51:54;95807.75;;;37.09;11.09
45129;BME280;35512;56.312;101.728;2023-05-22T03:54:23;95810.50;;;37.53;11.17
45129;BME280;35512;56.312;101.728;2023-05-22T03:56:52;95818.88;;;37.22;11.11
45129;BME280;35512;56.312;101.728;2023-05-22T03:59:21;95812.88;;;35.26;11.33
45129;BME280;35512;56.312;101.728;2023-05-22T04:01:50;95807.69;;;32.68;12.18
45129;BME280;35512;56.312;101.728;2023-05-22T04:04:19;95802.94;;;31.00;13.06
45129;BME280;35512;56.312;101.728;2023-05-22T04:06:50;95809.22;;;31.59;13.24
45129;BME280;35512;56.312;101.728;2023-05-22T04:09:20;95802.69;;;34.22;12.60
45129;BME280;35512;56.312;101.728;2023-05-22T04:11:49;95802.84;;;36.65;11.54
45129;BME280;35512;56.312;101.728;2023-05-22T04:14:18;95797.53;;;36.83;10.97
45129;BME280;35512;56.312;101.728;2023-05-22T04:16:47;95794.47;;;35.73;11.28
45129;BME280;35512;56.312;101.728;2023-05-22T04:19:17;95797.22;;;34.43;11.68
45129;BME280;35512;56.312;101.728;2023-05-22T04:21:47;95794.13;;;32.78;12.03
45129;BME280;35512;56.312;101.728;2023-05-22T04:24:17;95805.56;;;31.34;12.10
45129;BME280;35512;56.312;101.728;2023-05-22T04:26:46;95789.22;;;30.55;12.76
45129;BME280;35512;56.312;101.728;2023-05-22T04:29:15;95796.88;;;30.09;12.96
45129;BME280;35512;56.312;101.728;2023-05-22T04:31:44;95803.31;;;30.74;12.68
45129;BME280;35512;56.312;101.728;2023-05-22T04:34:14;95806.38;;;31.65;12.49
45129;BME280;35512;56.312;101.728;2023-05-22T04:36:44;95814.53;;;33.49;11.96
45129;BME280;35512;56.312;101.728;2023-05-22T04:39:14;95801.41;;;34.49;11.19
45129;BME280;35512;56.312;101.728;2023-05-22T04:41:43;95807.66;;;34.96;11.16
45129;BME280;35512;56.312;101.728;2023-05-22T04:44:13;95804.94;;;34.10;11.23
45129;BME280;35512;56.312;101.728;2023-05-22T04:46:42;95795.19;;;32.50;11.74
45129;BME280;35512;56.312;101.728;2023-05-22T04:49:12;95806.66;;;31.61;12.33
45129;BME280;35512;56.312;101.728;2023-05-22T04:51:42;95806.69;;;33.48;12.31
45129;BME280;35512;56.312;101.728;2023-05-22T04:54:10;95796.16;;;35.55;11.61
45129;BME280;35512;56.312;101.728;2023-05-22T04:56:39;95802.53;;;36.77;11.12
45129;BME280;35512;56.312;101.728;2023-05-22T04:59:08;95794.25;;;37.91;10.92
45129;BME280;35512;56.312;101.728;2023-05-22T05:01:40;95782.56;;;38.17;10.27
45129;BME280;35512;56.312;101.728;2023-05-22T05:04:13;95779.22;;;38.11;10.17
45129;BME280;35512;56.312;101.728;2023-05-22T05:06:42;95779.16;;;38.42;10.38
45129;BME280;35512;56.312;101.728;2023-05-22T05:09:12;95775.34;;;38.63;9.75
45129;BME280;35512;56.312;101.728;2023-05-22T05:11:41;95779.16;;;38.42;9.84
45129;BME280;35512;56.312;101.728;2023-05-22T05:14:10;95772.81;;;38.18;9.75
45129;BME280;35512;56.312;101.728;2023-05-22T05:16:39;95766.72;;;38.61;9.64
45129;BME280;35512;56.312;101.728;2023-05-22T05:19:08;95759.72;;;38.77;9.57
45129;BME280;35512;56.312;101.728;2023-05-22T05:21:38;95762.66;;;38.95;9.46
45129;BME280;35512;56.312;101.728;2023-05-22T05:24:07;95755.19;;;39.22;9.47
45129;BME280;35512;56.312;101.728;2023-05-22T05:26:36;95745.28;;;39.06;9.35
45129;BME280;35512;56.312;101.728;2023-05-22T05:29:04;95754.56;;;39.32;9.18
45129;BME280;35512;56.312;101.728;2023-05-22T05:31:51;95745.09;;;39.95;9.07
45129;BME280;35512;56.312;101.728;2023-05-22T05:34:31;95739.81;;;40.17;8.82
45129;BME280;35512;56.312;101.728;2023-05-22T05:37:03;95729.84;;;41.13;8.30
45129;BME280;35512;56.312;101.728;2023-05-22T05:39:33;95726.16;;;41.48;8.37
45129;BME280;35512;56.312;101.728;2023-05-22T05:42:05;95734.53;;;41.01;7.97
45129;BME280;35512;56.312;101.728;2023-05-22T05:44:34;95720.91;;;40.89;8.30
45129;BME280;35512;56.312;101.728;2023-05-22T05:47:06;95717.44;;;41.36;8.15
45129;BME280;35512;56.312;101.728;2023-05-22T05:49:35;95717.88;;;42.26;8.25
45129;BME280;35512;56.312;101.728;2023-05-22T05:52:06;95730.06;;;41.99;8.00
45129;BME280;35512;56.312;101.728;2023-05-22T05:54:36;95738.63;;;41.08;7.83
45129;BME280;35512;56.312;101.728;2023-05-22T05:57:13;95727.53;;;38.80;8.50
45129;BME280;35512;56.312;101.728;2023-05-22T05:59:42;95744.59;;;36.37;8.88
45129;BME280;35512;56.312;101.728;2023-05-22T06:02:32;95723.94;;;33.66;9.84
45129;BME280;35512;56.312;101.728;2023-05-22T06:05:03;95742.28;;;31.84;10.68
45129;BME280;35512;56.312;101.728;2023-05-22T06:07:39;95756.84;;;30.34;11.35
45129;BME280;35512;56.312;101.728;2023-05-22T06:10:10;95756.75;;;28.64;11.79
45129;BME280;35512;56.312;101.728;2023-05-22T06:12:52;95739.03;;;27.38;12.27
45129;BME280;35512;56.312;101.728;2023-05-22T06:15:21;95756.56;;;26.35;13.16
45129;BME280;35512;56.312;101.728;2023-05-22T06:17:50;95746.47;;;25.46;13.47
45129;BME280;35512;56.312;101.728;2023-05-22T06:20:20;95753.38;;;24.67;14.18
45129;BME280;35512;56.312;101.728;2023-05-22T06:22:50;95795.03;;;23.77;15.05
45129;BME280;35512;56.312;101.728;2023-05-22T06:25:19;95811.56;;;22.79;16.02
45129;BME280;35512;56.312;101.728;2023-05-22T06:27:48;95812.81;;;22.19;16.28
45129;BME280;35512;56.312;101.728;2023-05-22T06:30:18;95822.38;;;21.64;17.11
45129;BME280;35512;56.312;101.728;2023-05-22T06:33:05;95801.56;;;21.32;17.42
45129;BME280;35512;56.312;101.728;2023-05-22T06:35:35;95761.44;;;21.03;17.94
45129;BME280;35512;56.312;101.728;2023-05-22T06:38:05;95756.91;;;20.87;17.67
45129;BME280;35512;56.312;101.728;2023-05-22T06:40:34;95759.38;;;20.94;17.87
45129;BME280;35512;56.312;101.728;2023-05-22T06:43:11;95753.19;;;21.25;17.70
45129;BME280;35512;56.312;101.728;2023-05-22T06:46:00;95743.91;;;21.63;17.67
45129;BME280;35512;56.312;101.728;2023-05-22T06:48:49;95749.59;;;22.28;17.63
45129;BME280;35512;56.312;101.728;2023-05-22T06:51:26;95736.09;;;23.41;16.95
45129;BME280;35512;56.312;101.728;2023-05-22T06:54:02;95731.63;;;25.43;16.86
45129;BME280;35512;56.312;101.728;2023-05-22T06:56:36;95727.03;;;27.46;16.13
45129;BME280;35512;56.312;101.728;2023-05-22T06:59:12;95710.59;;;30.09;15.12
45129;BME280;35512;56.312;101.728;2023-05-22T07:02:00;95706.34;;;33.39;14.20
45129;BME280;35512;56.312;101.728;2023-05-22T07:04:59;95707.72;;;36.48;12.75
45129;BME280;35512;56.312;101.728;2023-05-22T07:07:34;95693.91;;;38.26;12.12
45129;BME280;35512;56.312;101.728;2023-05-22T07:10:03;95692.69;;;39.26;11.54
45129;BME280;35512;56.312;101.728;2023-05-22T07:12:32;95695.41;;;40.10;11.20
45129;BME280;35512;56.312;101.728;2023-05-22T07:15:02;95692.63;;;41.17;10.58
45129;BME280;35512;56.312;101.728;2023-05-22T07:17:32;95688.63;;;42.23;9.96
45129;BME280;35512;56.312;101.728;2023-05-22T07:20:02;95686.19;;;42.79;9.91
45129;BME280;35512;56.312;101.728;2023-05-22T07:22:34;95690.97;;;42.17;9.69
45129;BME280;35512;56.312;101.728;2023-05-22T07:25:04;95685.59;;;41.45;9.59
45129;BME280;35512;56.312;101.728;2023-05-22T07:27:33;95680.88;;;40.13;9.70
45129;BME280;35512;56.312;101.728;2023-05-22T07:30:03;95679.50;;;37.52;10.55
45129;BME280;35512;56.312;101.728;2023-05-22T07:32:33;95675.69;;;36.59;10.83
45129;BME280;35512;56.312;101.728;2023-05-22T07:35:03;95669.34;;;37.57;10.34
45129;BME280;35512;56.312;101.728;2023-05-22T07:37:34;95668.69;;;38.77;9.90
45129;BME280;35512;56.312;101.728;2023-05-22T07:40:04;95674.19;;;39.33;9.50
45129;BME280;35512;56.312;101.728;2023-05-22T07:42:37;95669.63;;;39.37;9.52
45129;BME280;35512;56.312;101.728;2023-05-22T07:45:08;95676.19;;;39.40;9.32
45129;BME280;35512;56.312;101.728;2023-05-22T07:47:38;95662.00;;;38.97;9.11
45129;BME280;35512;56.312;101.728;2023-05-22T07:50:07;95661.06;;;37.59;9.43
45129;BME280;35512;56.312;101.728;2023-05-22T07:52:40;95669.84;;;35.34;10.17
45129;BME280;35512;56.312;101.728;2023-05-22T07:55:09;95684.69;;;33.39;10.48
45129;BME280;35512;56.312;101.728;2023-05-22T07:57:40;95690.75;;;31.55;11.31
45129;BME280;35512;56.312;101.728;2023-05-22T08:00:20;95690.69;;;29.08;12.65
45129;BME280;35512;56.312;101.728;2023-05-22T08:02:50;95712.16;;;27.44;13.60
45129;BME280;35512;56.312;101.728;2023-05-22T08:05:19;95696.28;;;26.45;14.49
45129;BME280;35512;56.312;101.728;2023-05-22T08:07:49;95706.63;;;25.53;15.03
45129;BME280;35512;56.312;101.728;2023-05-22T08:10:18;95720.41;;;24.63;15.88
45129;BME280;35512;56.312;101.728;2023-05-22T08:12:47;95737.25;;;23.92;16.22
45129;BME280;35512;56.312;101.728;2023-05-22T08:15:16;95740.31;;;23.52;16.65
45129;BME280;35512;56.312;101.728;2023-05-22T08:17:45;95748.84;;;23.11;16.82
45129;BME280;35512;56.312;101.728;2023-05-22T08:20:14;95749.63;;;22.84;17.54
45129;BME280;35512;56.312;101.728;2023-05-22T08:22:43;95744.44;;;22.49;18.23
45129;BME280;35512;56.312;101.728;2023-05-22T08:25:12;95743.63;;;22.29;19.25
45129;BME280;35512;56.312;101.728;2023-05-22T08:27:41;95746.75;;;21.91;19.78
45129;BME280;35512;56.312;101.728;2023-05-22T08:30:10;95737.88;;;21.87;20.96
45129;BME280;35512;56.312;101.728;2023-05-22T08:32:39;95738.31;;;21.76;21.37
45129;BME280;35512;56.312;101.728;2023-05-22T08:35:09;95725.84;;;21.93;21.60
45129;BME280;35512;56.312;101.728;2023-05-22T08:37:38;95728.69;;;22.31;21.96
45129;BME280;35512;56.312;101.728;2023-05-22T08:40:11;95723.19;;;22.68;21.93
45129;BME280;35512;56.312;101.728;2023-05-22T08:42:41;95719.47;;;23.17;21.63
45129;BME280;35512;56.312;101.728;2023-05-22T08:45:10;95721.63;;;23.56;21.60
45129;BME280;35512;56.312;101.728;2023-05-22T08:47:40;95726.69;;;23.91;21.50
45129;BME280;35512;56.312;101.728;2023-05-22T08:50:11;95720.41;;;24.14;21.37
45129;BME280;35512;56.312;101.728;2023-05-22T08:52:50;95717.75;;;24.05;21.05
45129;BME280;35512;56.312;101.728;2023-05-22T08:55:20;95720.56;;;23.87;21.50
45129;BME280;35512;56.312;101.728;2023-05-22T08:57:49;95721.19;;;23.57;21.24
45129;BME280;35512;56.312;101.728;2023-05-22T09:00:20;95719.44;;;23.36;21.40
45129;BME280;35512;56.312;101.728;2023-05-22T09:02:49;95715.13;;;23.35;21.33
45129;BME280;35512;56.312;101.728;2023-05-22T09:05:20;95718.81;;;23.32;21.21
45129;BME280;35512;56.312;101.728;2023-05-22T09:07:54;95714.13;;;23.56;21.01
45129;BME280;35512;56.312;101.728;2023-05-22T09:10:29;95710.28;;;23.87;20.68
45129;BME280;35512;56.312;101.728;2023-05-22T09:13:02;95705.59;;;24.12;20.45
45129;BME280;35512;56.312;101.728;2023-05-22T09:15:32;95711.16;;;24.27;20.21
45129;BME280;35512;56.312;101.728;2023-05-22T09:18:04;95706.44;;;24.42;20.13
45129;BME280;35512;56.312;101.728;2023-05-22T09:20:34;95707.88;;;24.53;19.84
45129;BME280;35512;56.312;101.728;2023-05-22T09:23:15;95699.56;;;24.62;19.89
45129;BME280;35512;56.312;101.728;2023-05-22T09:25:49;95701.44;;;24.56;19.71
45129;BME280;35512;56.312;101.728;2023-05-22T09:28:21;95709.13;;;24.52;20.07
45129;BME280;35512;56.312;101.728;2023-05-22T09:30:52;95704.50;;;24.34;19.94
45129;BME280;35512;56.312;101.728;2023-05-22T09:33:22;95704.22;;;24.07;20.25
45129;BME280;35512;56.312;101.728;2023-05-22T09:35:52;95720.44;;;23.81;20.43
45129;BME280;35512;56.312;101.728;2023-05-22T09:38:22;95715.13;;;23.68;20.57
45129;BME280;35512;56.312;101.728;2023-05-22T09:40:55;95726.31;;;23.31;20.77
45129;BME280;35512;56.312;101.728;2023-05-22T09:43:24;95752.09;;;22.72;21.21
45129;BME280;35512;56.312;101.728;2023-05-22T09:45:59;95751.88;;;22.29;21.50
45129;BME280;35512;56.312;101.728;2023-05-22T09:48:33;95759.19;;;22.14;21.54
45129;BME280;35512;56.312;101.728;2023-05-22T09:51:03;95777.22;;;22.24;21.52
45129;BME280;35512;56.312;101.728;2023-05-22T09:53:34;95774.34;;;22.28;21.69
45129;BME280;35512;56.312;101.728;2023-05-22T09:56:07;95786.94;;;21.88;22.14
45129;BME280;35512;56.312;101.728;2023-05-22T09:58:45;95788.47;;;21.36;23.06
45129;BME280;35512;56.312;101.728;2023-05-22T10:01:16;95792.00;;;20.92;23.61
45129;BME280;35512;56.312;101.728;2023-05-22T10:03:47;95806.06;;;20.46;24.72
45129;BME280;35512;56.312;101.728;2023-05-22T10:06:20;95793.88;;;19.86;25.13
45129;BME280;35512;56.312;101.728;2023-05-22T10:08:54;95798.78;;;19.53;25.56
45129;BME280;35512;56.312;101.728;2023-05-22T10:11:27;95802.22;;;19.15;25.80
45129;BME280;35512;56.312;101.728;2023-05-22T10:13:58;95798.94;;;18.90;26.42
45129;BME280;35512;56.312;101.728;2023-05-22T10:16:29;95796.75;;;18.69;26.83
45129;BME280;35512;56.312;101.728;2023-05-22T10:18:59;95799.03;;;18.41;27.07
45129;BME280;35512;56.312;101.728;2023-05-22T10:21:32;95809.75;;;18.19;27.42
45129;BME280;35512;56.312;101.728;2023-05-22T10:24:01;95810.06;;;18.04;27.55
45129;BME280;35512;56.312;101.728;2023-05-22T10:26:32;95801.84;;;17.88;28.09
45129;BME280;35512;56.312;101.728;2023-05-22T10:29:10;95802.41;;;17.79;28.04
45129;BME280;35512;56.312;101.728;2023-05-22T10:34:39;95788.34;;;17.81;27.99
45129;BME280;35512;56.312;101.728;2023-05-22T10:37:36;95781.59;;;17.85;27.93
45129;BME280;35512;56.312;101.728;2023-05-22T10:40:11;95795.19;;;17.89;27.86
45129;BME280;35512;56.312;101.728;2023-05-22T10:42:42;95786.63;;;17.87;28.07
45129;BME280;35512;56.312;101.728;2023-05-22T10:45:11;95788.19;;;17.88;28.30
45129;BME280;35512;56.312;101.728;2023-05-22T10:47:41;95795.38;;;17.98;28.32
45129;BME280;35512;56.312;101.728;2023-05-22T10:50:10;95791.69;;;18.05;28.15
45129;BME280;35512;56.312;101.728;2023-05-22T10:52:40;95785.97;;;17.99;28.25
45129;BME280;35512;56.312;101.728;2023-05-22T10:55:09;95777.63;;;18.06;28.06
45129;BME280;35512;56.312;101.728;2023-05-22T10:57:39;95781.31;;;18.00;28.09
45129;BME280;35512;56.312;101.728;2023-05-22T11:00:09;95781.03;;;17.94;28.11
45129;BME280;35512;56.312;101.728;2023-05-22T11:02:43;95776.56;;;17.84;28.18
45129;BME280;35512;56.312;101.728;2023-05-22T11:07:50;95787.59;;;17.97;27.99
45129;BME280;35512;56.312;101.728;2023-05-22T11:10:26;95777.78;;;18.16;27.70
45129;BME280;35512;56.312;101.728;2023-05-22T11:13:13;95780.25;;;18.27;27.61
45129;BME280;35512;56.312;101.728;2023-05-22T11:15:45;95785.22;;;18.32;27.48
45129;BME280;35512;56.312;101.728;2023-05-22T11:18:15;95797.50;;;18.40;27.41
45129;BME280;35512;56.312;101.728;2023-05-22T11:20:45;95800.59;;;18.42;27.54
45129;BME280;35512;56.312;101.728;2023-05-22T11:23:17;95806.53;;;18.53;27.27
45129;BME280;35512;56.312;101.728;2023-05-22T11:25:47;95810.44;;;18.69;27.23
45129;BME280;35512;56.312;101.728;2023-05-22T11:28:17;95809.63;;;18.85;27.14
45129;BME280;35512;56.312;101.728;2023-05-22T11:30:46;95810.56;;;18.95;27.29
45129;BME280;35512;56.312;101.728;2023-05-22T11:33:15;95817.31;;;19.19;27.08
45129;BME280;35512;56.312;101.728;2023-05-22T11:35:46;95810.34;;;19.44;26.86
45129;BME280;35512;56.312;101.728;2023-05-22T11:38:17;95811.06;;;19.61;26.79
45129;BME280;35512;56.312;101.728;2023-05-22T11:40:50;95807.75;;;19.53;26.69
45129;BME280;35512;56.312;101.728;2023-05-22T11:43:29;95804.34;;;19.49;26.85
45129;BME280;35512;56.312;101.728;2023-05-22T11:46:08;95807.41;;;19.38;27.06
45129;BME280;35512;56.312;101.728;2023-05-22T11:48:41;95819.56;;;19.37;26.83
45129;BME280;35512;56.312;101.728;2023-05-22T11:51:11;95814.72;;;19.29;26.90
45129;BME280;35512;56.312;101.728;2023-05-22T11:53:40;95819.06;;;19.13;27.11
45129;BME280;35512;56.312;101.728;2023-05-22T11:56:09;95808.28;;;19.06;27.07
45129;BME280;35512;56.312;101.728;2023-05-22T11:58:39;95810.47;;;18.98;27.25
45129;BME280;35512;56.312;101.728;2023-05-22T12:01:08;95812.09;;;18.96;27.28
45129;BME280;35512;56.312;101.728;2023-05-22T12:03:37;95807.22;;;19.03;27.22
45129;BME280;35512;56.312;101.728;2023-05-22T12:06:06;95810.06;;;19.13;26.97
45129;BME280;35512;56.312;101.728;2023-05-22T12:08:36;95805.91;;;19.08;27.07
45129;BME280;35512;56.312;101.728;2023-05-22T12:11:05;95803.16;;;18.95;27.22
45129;BME280;35512;56.312;101.728;2023-05-22T12:13:34;95800.94;;;18.90;27.39
45129;BME280;35512;56.312;101.728;2023-05-22T12:16:17;95798.97;;;18.74;27.64
45129;BME280;35512;56.312;101.728;2023-05-22T12:18:48;95814.47;;;18.64;27.65
45129;BME280;35512;56.312;101.728;2023-05-22T12:21:20;95802.44;;;18.45;27.83
45129;BME280;35512;56.312;101.728;2023-05-22T12:23:50;95807.44;;;18.34;27.72
45129;BME280;35512;56.312;101.728;2023-05-22T12:26:19;95814.25;;;18.26;28.01
45129;BME280;35512;56.312;101.728;2023-05-22T12:28:56;95821.06;;;18.17;28.05
45129;BME280;35512;56.312;101.728;2023-05-22T12:31:26;95821.41;;;18.03;27.96
45129;BME280;35512;56.312;101.728;2023-05-22T12:33:56;95809.78;;;17.82;28.26
45129;BME280;35512;56.312;101.728;2023-05-22T12:36:40;95810.44;;;17.70;28.29
45129;BME280;35512;56.312;101.728;2023-05-22T12:39:17;95815.69;;;17.61;28.29
45129;BME280;35512;56.312;101.728;2023-05-22T12:41:46;95813.69;;;17.45;28.37
45129;BME280;35512;56.312;101.728;2023-05-22T12:44:15;95817.06;;;17.32;28.42
45129;BME280;35512;56.312;101.728;2023-05-22T12:46:44;95807.28;;;17.15;28.91
45129;BME280;35512;56.312;101.728;2023-05-22T12:49:14;95813.84;;;16.97;28.75
45129;BME280;35512;56.312;101.728;2023-05-22T12:51:55;95812.63;;;16.78;29.02
45129;BME280;35512;56.312;101.728;2023-05-22T12:54:24;95805.91;;;16.63;29.30
45129;BME280;35512;56.312;101.728;2023-05-22T12:56:53;95815.44;;;16.51;29.30
45129;BME280;35512;56.312;101.728;2023-05-22T12:59:22;95823.50;;;16.34;29.43
45129;BME280;35512;56.312;101.728;2023-05-22T13:01:52;95819.06;;;16.20;29.61
45129;BME280;35512;56.312;101.728;2023-05-22T13:04:22;95813.38;;;16.11;29.78
45129;BME280;35512;56.312;101.728;2023-05-22T13:06:50;95810.88;;;15.97;29.87
45129;BME280;35512;56.312;101.728;2023-05-22T13:09:19;95806.13;;;15.74;30.10
45129;BME280;35512;56.312;101.728;2023-05-22T13:11:50;95797.47;;;15.51;30.44
45129;BME280;35512;56.312;101.728;2023-05-22T13:14:19;95810.38;;;15.47;30.81
45129;BME280;35512;56.312;101.728;2023-05-22T13:16:48;95809.28;;;15.41;30.97
45129;BME280;35512;56.312;101.728;2023-05-22T13:19:17;95813.97;;;15.41;31.18
45129;BME280;35512;56.312;101.728;2023-05-22T13:21:46;95808.91;;;15.39;31.21